Time;durP1;ratioP1;P1;durP2;ratioP2;P2;SDS_P1;SDS_P2;PMS_P1;PMS_P2;Temp;Humidity;BMP_temperature;BMP_pressure;BME280_temperature;BME280_humidity;BME280_pressure;Samples;Min_cycle;Max_cycle;Signal;HPM_P1;HPM_P2
2022/01/04 00:01:52;;;;;;;1.33;0.52;;;20.50;50.40;;;;;;6193049;28;20254;-73
2022/01/04 00:04:52;;;;;;;0.85;0.63;;;20.50;50.40;;;;;;6193239;28;20026;-73
2022/01/04 00:07:53;;;;;;;1.10;0.70;;;20.50;50.40;;;;;;6193997;28;20030;-73
2022/01/04 00:11:05;;;;;;;0.70;0.57;;;20.50;50.40;;;;;;6193540;28;20030;-73
2022/01/04 00:14:05;;;;;;;0.80;0.50;;;20.50;50.50;;;;;;6191140;28;20034;-73
2022/01/04 00:17:06;;;;;;;0.57;0.50;;;20.50;50.50;;;;;;6192837;28;20046;-73
2022/01/04 00:20:07;;;;;;;1.33;0.80;;;20.50;50.50;;;;;;6193504;28;20026;-73
2022/01/04 00:23:07;;;;;;;0.70;0.63;;;20.50;50.50;;;;;;6193603;28;20245;-73
2022/01/04 00:26:08;;;;;;;1.52;0.60;;;20.50;50.50;;;;;;6192605;28;20532;-73
2022/01/04 00:29:08;;;;;;;0.85;0.70;;;20.50;50.50;;;;;;6192913;28;20060;-73
2022/01/04 00:32:09;;;;;;;0.70;0.60;;;20.50;50.50;;;;;;6192383;28;20272;-73
2022/01/04 00:35:10;;;;;;;0.90;0.50;;;20.50;50.40;;;;;;6192214;28;20397;-73
2022/01/04 00:38:10;;;;;;;0.77;0.40;;;20.50;50.40;;;;;;6193053;28;20467;-73
2022/01/04 00:41:11;;;;;;;0.57;0.40;;;20.40;50.40;;;;;;6194570;28;20022;-73
2022/01/04 00:44:11;;;;;;;0.73;0.50;;;20.50;50.50;;;;;;6192677;28;20030;-73
2022/01/04 00:47:12;;;;;;;0.50;0.40;;;20.50;50.50;;;;;;6196062;28;20030;-73
2022/01/04 00:50:12;;;;;;;0.82;0.47;;;20.50;50.50;;;;;;6192551;28;20041;-73
2022/01/04 00:53:13;;;;;;;0.68;0.57;;;20.50;50.40;;;;;;6192626;28;20045;-73
2022/01/04 00:56:14;;;;;;;0.90;0.70;;;20.50;50.50;;;;;;6192426;28;20080;-73
2022/01/04 00:59:15;;;;;;;0.70;0.50;;;20.50;50.50;;;;;;6189331;28;20100;-72
2022/01/04 01:02:15;;;;;;;0.40;0.40;;;20.40;50.40;;;;;;6196726;28;20525;-73
2022/01/04 01:05:17;;;;;;;0.85;0.40;;;20.40;50.30;;;;;;6191653;28;20030;-73
2022/01/04 01:08:18;;;;;;;0.80;0.52;;;20.50;50.40;;;;;;6192948;28;20391;-73
2022/01/04 01:11:19;;;;;;;0.68;0.57;;;20.50;50.50;;;;;;6192349;28;20030;-72
2022/01/04 01:14:19;;;;;;;0.63;0.50;;;20.40;50.50;;;;;;6192579;28;20089;-73
2022/01/04 01:17:20;;;;;;;0.68;0.50;;;20.40;50.50;;;;;;6192013;28;20042;-72
2022/01/04 01:20:20;;;;;;;0.45;0.40;;;20.40;50.40;;;;;;6198676;28;20026;-73
2022/01/04 01:23:21;;;;;;;0.30;0.30;;;20.40;50.40;;;;;;6192112;28;20236;-73
2022/01/04 01:26:22;;;;;;;0.75;0.52;;;20.40;50.40;;;;;;6192069;28;20030;-73
2022/01/04 01:29:22;;;;;;;1.00;0.52;;;20.40;50.40;;;;;;6174695;28;20118;-73
2022/01/04 01:32:23;;;;;;;1.10;0.70;;;20.40;50.40;;;;;;6191596;28;20025;-73
2022/01/04 01:35:23;;;;;;;0.80;0.55;;;20.40;50.50;;;;;;6191426;28;20026;-73
2022/01/04 01:38:25;;;;;;;0.47;0.40;;;20.40;50.40;;;;;;6192038;28;20465;-73
2022/01/04 01:41:25;;;;;;;0.70;0.50;;;20.40;50.40;;;;;;6191546;28;20030;-73
2022/01/04 01:44:27;;;;;;;0.80;0.30;;;20.40;50.40;;;;;;6192106;28;20041;-73
2022/01/04 01:47:27;;;;;;;0.60;0.50;;;20.40;50.50;;;;;;6191420;28;20049;-73
2022/01/04 01:50:28;;;;;;;1.23;0.70;;;20.40;50.50;;;;;;6192211;28;20034;-73
2022/01/04 01:53:29;;;;;;;0.73;0.43;;;20.40;50.40;;;;;;6190927;28;20019;-72
2022/01/04 01:56:29;;;;;;;0.40;0.40;;;20.40;50.50;;;;;;6191766;28;20027;-73
2022/01/04 01:59:30;;;;;;;1.63;0.63;;;20.40;50.50;;;;;;6191856;28;20083;-73
2022/01/04 02:02:30;;;;;;;0.57;0.32;;;20.40;50.50;;;;;;6191411;28;20521;-73
2022/01/04 02:05:31;;;;;;;0.60;0.50;;;20.40;50.50;;;;;;6191788;28;20096;-73
2022/01/04 02:08:32;;;;;;;0.30;0.30;;;20.40;50.50;;;;;;6188600;28;20113;-73
2022/01/04 02:11:34;;;;;;;0.68;0.40;;;20.40;50.50;;;;;;6144541;28;20383;-73
2022/01/04 02:14:35;;;;;;;0.50;0.50;;;20.40;50.50;;;;;;6140740;29;20063;-73
2022/01/04 02:17:36;;;;;;;0.40;0.40;;;20.40;50.50;;;;;;6140150;29;20031;-73
2022/01/04 02:20:36;;;;;;;0.63;0.52;;;20.40;50.50;;;;;;6140128;29;20090;-73
2022/01/04 02:23:37;;;;;;;0.73;0.40;;;20.40;50.50;;;;;;6140184;28;20051;-73
2022/01/04 02:26:40;;;;;;;0.38;0.38;;;20.40;50.50;;;;;;6141377;28;20047;-73
2022/01/04 02:29:41;;;;;;;0.40;0.40;;;20.40;50.50;;;;;;6140220;29;20042;-72
2022/01/04 02:32:43;;;;;;;0.60;0.40;;;20.40;50.50;;;;;;6138883;28;20494;-73
2022/01/04 02:35:44;;;;;;;1.05;0.38;;;20.40;50.50;;;;;;6140249;29;20082;-73
2022/01/04 02:38:44;;;;;;;0.65;0.43;;;20.40;50.50;;;;;;6139336;29;20073;-73
2022/01/04 02:41:45;;;;;;;0.60;0.55;;;20.40;50.50;;;;;;6156274;28;20047;-73
2022/01/04 02:44:46;;;;;;;1.00;0.65;;;20.40;50.40;;;;;;6192341;28;20061;-73
2022/01/04 02:47:46;;;;;;;0.70;0.50;;;20.40;50.50;;;;;;6192509;28;20114;-73
2022/01/04 02:50:47;;;;;;;0.80;0.50;;;20.40;50.50;;;;;;6196153;28;20053;-73
2022/01/04 02:53:47;;;;;;;0.52;0.50;;;20.40;50.50;;;;;;6195664;28;20511;-73
2022/01/04 02:56:48;;;;;;;0.88;0.40;;;20.40;50.50;;;;;;6195533;28;20022;-73
2022/01/04 02:59:48;;;;;;;0.60;0.50;;;20.40;50.50;;;;;;6195688;28;20030;-73
2022/01/04 03:02:49;;;;;;;0.52;0.45;;;20.40;50.50;;;;;;6194804;28;20080;-73
2022/01/04 03:05:49;;;;;;;0.93;0.50;;;20.40;50.50;;;;;;6195700;28;20030;-72
2022/01/04 03:08:50;;;;;;;0.70;0.60;;;20.40;50.50;;;;;;6195174;28;20093;-73
2022/01/04 03:11:51;;;;;;;0.80;0.50;;;20.40;50.50;;;;;;6195119;28;20096;-73
2022/01/04 03:14:51;;;;;;;0.47;0.40;;;20.40;50.50;;;;;;6192523;28;20493;-72
2022/01/04 03:17:52;;;;;;;0.47;0.40;;;20.40;50.50;;;;;;6195026;28;20034;-72
2022/01/04 03:20:52;;;;;;;0.43;0.40;;;20.40;50.50;;;;;;6195440;28;20038;-72
2022/01/04 03:23:53;;;;;;;0.70;0.50;;;20.40;50.50;;;;;;6194870;28;20038;-72
2022/01/04 03:26:53;;;;;;;0.52;0.40;;;20.40;50.50;;;;;;6195322;28;20110;-73
2022/01/04 03:29:54;;;;;;;0.30;0.30;;;20.40;50.50;;;;;;6195231;28;20068;-73
2022/01/04 03:32:54;;;;;;;0.57;0.40;;;20.40;50.50;;;;;;6194250;28;20026;-73
2022/01/04 03:35:55;;;;;;;0.30;0.30;;;20.40;50.50;;;;;;6192710;28;20041;-73
2022/01/04 03:38:57;;;;;;;0.70;0.57;;;20.40;50.50;;;;;;6194592;28;20054;-73
2022/01/04 03:41:57;;;;;;;0.40;0.38;;;20.40;50.50;;;;;;6194687;28;20478;-73
2022/01/04 03:44:58;;;;;;;0.82;0.52;;;20.40;50.50;;;;;;6177575;28;20304;-73
2022/01/04 03:47:58;;;;;;;0.60;0.50;;;20.40;50.60;;;;;;6194296;28;20030;-73
2022/01/04 03:50:59;;;;;;;0.57;0.40;;;20.40;50.50;;;;;;6194750;28;20358;-72
2022/01/04 03:53:59;;;;;;;0.57;0.40;;;20.40;50.50;;;;;;6194013;28;20022;-73
2022/01/04 03:57:00;;;;;;;0.90;0.40;;;20.40;50.50;;;;;;6198671;28;20039;-73
2022/01/04 04:00:57;;;;;;;0.45;0.45;;;20.40;50.50;;;;;;6193531;28;20036;-73
2022/01/04 04:03:57;;;;;;;;;;;20.40;50.60;;;;;;6194873;28;20054;-73
2022/01/04 04:06:58;;;;;;;1.08;0.43;;;20.40;50.50;;;;;;6195125;28;20446;-73
2022/01/04 04:09:58;;;;;;;0.63;0.50;;;20.30;50.50;;;;;;6194841;28;20121;-73
2022/01/04 04:12:59;;;;;;;1.05;0.50;;;20.40;50.50;;;;;;6194873;28;20077;-73
2022/01/04 04:15:59;;;;;;;0.52;0.50;;;20.40;50.50;;;;;;6195120;28;20104;-73
2022/01/04 04:19:00;;;;;;;0.50;0.47;;;20.40;50.50;;;;;;6194985;28;20042;-73
2022/01/04 04:22:01;;;;;;;0.80;0.50;;;20.40;50.60;;;;;;6199397;28;20038;-73
2022/01/04 04:25:01;;;;;;;0.70;0.45;;;20.40;50.50;;;;;;6194311;28;20213;-73
2022/01/04 04:28:02;;;;;;;0.98;0.50;;;20.40;51.20;;;;;;6195001;28;20037;-73
2022/01/04 04:31:03;;;;;;;0.65;0.45;;;20.40;51.20;;;;;;6194706;28;20030;-73
2022/01/04 04:34:04;;;;;;;0.57;0.45;;;20.40;50.50;;;;;;6191201;28;20299;-73
2022/01/04 04:37:04;;;;;;;0.50;0.35;;;20.40;50.50;;;;;;6190488;28;20397;-73
2022/01/04 04:40:06;;;;;;;0.70;0.40;;;20.40;50.60;;;;;;6191395;28;20061;-73
2022/01/04 04:43:06;;;;;;;0.43;0.35;;;20.40;50.60;;;;;;6193923;28;20454;-73
2022/01/04 04:46:07;;;;;;;0.57;0.50;;;20.40;50.60;;;;;;6193937;28;20030;-73
2022/01/04 04:49:07;;;;;;;0.77;0.35;;;20.40;50.60;;;;;;6194318;28;20109;-73
2022/01/04 04:52:08;;;;;;;0.63;0.40;;;20.40;50.50;;;;;;6194403;28;20030;-73
2022/01/04 04:55:09;;;;;;;0.50;0.40;;;20.40;50.60;;;;;;6194006;28;20157;-73
2022/01/04 04:58:10;;;;;;;0.30;0.30;;;20.40;50.50;;;;;;6195334;28;20444;-73
2022/01/04 05:01:10;;;;;;;0.60;0.45;;;20.40;50.60;;;;;;6191060;28;20046;-73
2022/01/04 05:04:11;;;;;;;0.60;0.50;;;20.40;50.60;;;;;;6193366;28;20043;-73
2022/01/04 05:07:11;;;;;;;0.28;0.28;;;20.40;50.50;;;;;;6190835;28;20393;-73
2022/01/04 05:10:12;;;;;;;0.30;0.30;;;20.40;50.60;;;;;;6193542;28;20515;-73
2022/01/04 05:13:12;;;;;;;0.45;0.40;;;20.40;50.50;;;;;;6193694;28;20026;-73
2022/01/04 05:16:13;;;;;;;0.40;0.40;;;20.40;50.50;;;;;;6193446;28;20109;-73
2022/01/04 05:19:14;;;;;;;0.35;0.30;;;20.30;50.40;;;;;;6193339;28;20034;-73
2022/01/04 05:22:15;;;;;;;0.35;0.30;;;20.30;50.50;;;;;;6193585;28;20067;-73
2022/01/04 05:25:15;;;;;;;0.43;0.40;;;20.40;50.50;;;;;;6193390;28;20034;-73
2022/01/04 05:28:16;;;;;;;0.32;0.30;;;20.40;50.50;;;;;;6193467;28;20085;-73
2022/01/04 05:31:16;;;;;;;0.55;0.40;;;20.40;50.50;;;;;;6193631;28;20072;-73
2022/01/04 05:34:17;;;;;;;0.55;0.50;;;20.40;50.60;;;;;;6189504;28;20022;-72
2022/01/04 05:37:17;;;;;;;0.30;0.30;;;20.40;50.50;;;;;;6198628;28;20389;-73
2022/01/04 05:40:18;;;;;;;0.57;0.50;;;20.40;50.50;;;;;;6193204;28;20058;-73
2022/01/04 05:43:18;;;;;;;0.50;0.30;;;20.30;50.40;;;;;;6193340;28;20105;-73
2022/01/04 05:46:19;;;;;;;0.30;0.30;;;20.40;50.70;;;;;;6192856;28;20651;-73
2022/01/04 05:49:19;;;;;;;0.60;0.52;;;20.40;50.60;;;;;;6192877;28;20034;-73
2022/01/04 05:52:20;;;;;;;0.47;0.30;;;20.40;50.50;;;;;;6192940;28;20515;-73
2022/01/04 05:55:20;;;;;;;0.52;0.40;;;20.40;50.60;;;;;;6193007;28;20088;-73
2022/01/04 05:58:21;;;;;;;0.60;0.30;;;20.40;50.60;;;;;;6193643;28;20042;-73
2022/01/04 06:01:21;;;;;;;0.30;0.30;;;20.40;50.50;;;;;;6187932;28;20054;-73
2022/01/04 06:04:22;;;;;;;0.35;0.35;;;20.40;50.60;;;;;;6191911;28;20035;-73
2022/01/04 06:07:23;;;;;;;0.30;0.30;;;20.40;50.60;;;;;;6193399;28;20233;-71
2022/01/04 06:10:24;;;;;;;0.45;0.40;;;20.40;50.60;;;;;;6192870;28;20058;-72
2022/01/04 06:16:43;;;;;;;0.40;0.30;;;20.40;50.60;;;;;;6197713;28;20034;-72
2022/01/04 06:19:44;;;;;;;0.57;0.38;;;20.40;50.50;;;;;;6192716;28;20058;-72
2022/01/04 06:22:44;;;;;;;0.40;0.30;;;20.40;50.50;;;;;;6195464;28;20038;-72
2022/01/04 06:25:45;;;;;;;0.75;0.40;;;20.40;50.40;;;;;;6197274;28;20267;-72
2022/01/04 06:28:46;;;;;;;0.52;0.52;;;20.40;50.40;;;;;;6198068;28;20030;-72
2022/01/04 06:31:46;;;;;;;0.30;0.30;;;20.40;50.40;;;;;;6193696;28;20543;-72
2022/01/04 06:34:47;;;;;;;0.35;0.30;;;20.40;50.40;;;;;;6201355;28;20109;-71
2022/01/04 06:37:47;;;;;;;0.40;0.40;;;20.40;50.30;;;;;;6197887;28;20487;-72
2022/01/04 06:40:48;;;;;;;0.38;0.30;;;20.40;50.30;;;;;;6196567;28;20034;-72
2022/01/04 06:43:49;;;;;;;0.30;0.30;;;20.40;50.30;;;;;;6197317;28;20027;-72
2022/01/04 06:46:50;;;;;;;0.20;0.20;;;20.40;50.30;;;;;;6192626;28;20061;-72
2022/01/04 06:49:50;;;;;;;0.47;0.38;;;20.40;50.30;;;;;;6202165;28;20113;-72
2022/01/04 06:52:51;;;;;;;0.40;0.40;;;20.40;50.30;;;;;;6197078;28;20030;-71
2022/01/04 06:55:52;;;;;;;0.40;0.40;;;20.40;50.40;;;;;;6196177;28;20027;-72
2022/01/04 06:58:53;;;;;;;0.40;0.40;;;20.40;50.30;;;;;;6196325;28;20134;-72
2022/01/04 07:01:53;;;;;;;0.30;0.30;;;20.40;50.40;;;;;;6193524;28;20039;-72
2022/01/04 07:04:54;;;;;;;0.70;0.30;;;20.40;50.40;;;;;;6197748;28;20030;-72
2022/01/04 07:07:54;;;;;;;0.38;0.38;;;20.40;50.40;;;;;;6198690;28;20062;-72
2022/01/04 07:10:55;;;;;;;0.70;0.40;;;20.40;50.40;;;;;;6198531;28;20026;-72
2022/01/04 07:13:55;;;;;;;0.20;0.20;;;20.40;50.40;;;;;;6204891;28;20030;-72
2022/01/04 07:16:56;;;;;;;0.28;0.28;;;20.40;50.40;;;;;;6198015;28;20030;-72
2022/01/04 07:19:56;;;;;;;0.40;0.30;;;20.40;50.40;;;;;;6198226;28;20124;-72
2022/01/04 07:22:57;;;;;;;0.35;0.20;;;20.40;50.50;;;;;;6196083;28;20034;-72
2022/01/04 07:25:57;;;;;;;0.20;0.20;;;20.40;50.40;;;;;;6194613;28;20038;-72
2022/01/04 07:28:58;;;;;;;1.23;0.75;;;20.40;50.50;;;;;;6196723;28;20113;-72
2022/01/04 07:31:59;;;;;;;0.40;0.30;;;20.40;50.50;;;;;;6197297;28;20366;-72
2022/01/04 07:34:59;;;;;;;0.68;0.35;;;20.40;50.50;;;;;;6196855;28;20389;-72
2022/01/04 07:38:00;;;;;;;1.38;0.50;;;20.40;50.50;;;;;;6197076;28;20030;-72
2022/01/04 07:41:01;;;;;;;1.58;0.40;;;20.40;50.50;;;;;;6197369;28;20037;-72
2022/01/04 07:44:01;;;;;;;0.30;0.30;;;20.40;50.50;;;;;;6195785;28;20022;-72
2022/01/04 07:47:02;;;;;;;0.50;0.40;;;20.40;50.50;;;;;;6194865;28;20022;-72
2022/01/04 07:50:03;;;;;;;0.63;0.35;;;20.40;50.50;;;;;;6195970;28;20105;-72
2022/01/04 07:53:04;;;;;;;0.47;0.40;;;20.40;50.60;;;;;;6197085;28;20033;-72
2022/01/04 07:56:05;;;;;;;0.73;0.38;;;20.40;50.60;;;;;;6197154;28;20484;-72
2022/01/04 07:59:05;;;;;;;0.40;0.32;;;20.40;50.60;;;;;;6196268;28;20086;-72
2022/01/04 08:02:07;;;;;;;0.50;0.50;;;20.40;50.60;;;;;;6195876;28;20082;-71
2022/01/04 08:05:10;;;;;;;0.57;0.35;;;20.40;50.60;;;;;;6197385;28;20040;-72
2022/01/04 08:08:11;;;;;;;0.30;0.30;;;20.40;50.60;;;;;;6186340;28;20034;-74
2022/01/04 08:11:12;;;;;;;0.85;0.45;;;20.40;50.60;;;;;;6194947;28;20031;-72
2022/01/04 08:14:13;;;;;;;0.75;0.40;;;20.40;50.60;;;;;;6197025;28;20026;-72
2022/01/04 08:17:15;;;;;;;1.05;0.40;;;20.40;50.60;;;;;;6201176;28;20026;-72
2022/01/04 08:20:17;;;;;;;1.05;0.40;;;20.40;50.70;;;;;;6197834;28;20043;-72
2022/01/04 08:23:17;;;;;;;0.40;0.40;;;20.40;50.60;;;;;;6194429;28;20053;-74
2022/01/04 08:26:19;;;;;;;1.33;0.40;;;20.40;50.60;;;;;;6195313;28;20038;-74
2022/01/04 08:29:19;;;;;;;0.80;0.35;;;20.40;50.60;;;;;;6176042;28;20018;-71
2022/01/04 08:32:20;;;;;;;0.47;0.38;;;20.50;50.70;;;;;;6195779;28;20046;-72
2022/01/04 08:35:22;;;;;;;0.35;0.30;;;20.50;50.80;;;;;;6197940;28;20030;-72
2022/01/04 08:38:22;;;;;;;2.95;0.40;;;20.50;50.60;;;;;;6194895;28;20559;-72
2022/01/04 08:41:23;;;;;;;1.08;0.60;;;20.60;50.60;;;;;;6195743;28;20026;-72
2022/01/04 08:44:23;;;;;;;2.38;0.70;;;20.60;50.50;;;;;;6195652;28;20026;-72
2022/01/04 08:47:26;;;;;;;0.38;0.32;;;20.60;50.80;;;;;;6190947;28;20065;-72
2022/01/04 08:50:27;;;;;;;1.98;0.55;;;20.60;50.60;;;;;;6198814;28;20062;-72
2022/01/04 08:53:28;;;;;;;0.85;0.40;;;20.70;50.60;;;;;;6198685;28;20026;-72
2022/01/04 08:56:28;;;;;;;1.10;0.30;;;20.70;50.60;;;;;;6196511;28;20508;-72
2022/01/04 08:59:29;;;;;;;2.10;0.60;;;20.60;50.60;;;;;;6195593;28;20113;-72
2022/01/04 09:02:31;;;;;;;1.67;0.70;;;20.60;50.60;;;;;;6193361;28;20046;-72
2022/01/04 09:05:32;;;;;;;1.13;0.50;;;20.60;50.70;;;;;;6195796;28;20030;-72
2022/01/04 09:08:33;;;;;;;4.63;0.68;;;20.60;50.50;;;;;;6192510;28;20390;-72
2022/01/04 09:11:33;;;;;;;1.73;0.60;;;20.60;50.30;;;;;;6200228;28;20509;-72
2022/01/04 09:14:43;;;;;;;3.75;0.68;;;20.60;49.80;;;;;;6195808;28;20033;-72
2022/01/04 09:21:03;;;;;;;3.40;0.80;;;20.50;48.80;;;;;;6195348;28;20129;-72
2022/01/04 09:24:05;;;;;;;2.25;0.70;;;20.50;48.50;;;;;;6198694;28;20083;-71
2022/01/04 09:27:06;;;;;;;3.47;1.00;;;20.50;47.80;;;;;;6197181;28;20018;-72
2022/01/04 09:30:07;;;;;;;1.98;1.00;;;20.50;48.60;;;;;;6196057;28;20046;-72
2022/01/04 09:33:08;;;;;;;1.92;0.98;;;20.50;47.70;;;;;;6194802;28;20555;-72
2022/01/04 09:36:09;;;;;;;5.35;1.05;;;20.40;48.10;;;;;;6195200;28;20074;-72
2022/01/04 09:39:18;;;;;;;3.47;1.00;;;20.50;47.30;;;;;;6195595;28;20038;-72
2022/01/04 09:42:20;;;;;;;6.00;1.20;;;20.50;47.10;;;;;;6195366;28;20034;-72
2022/01/04 09:45:21;;;;;;;1.52;0.88;;;20.50;47.60;;;;;;6195210;28;20105;-72
2022/01/04 09:48:21;;;;;;;1.77;0.93;;;20.50;47.80;;;;;;6202724;28;20393;-71
2022/01/04 09:51:22;;;;;;;2.42;0.85;;;20.50;48.00;;;;;;6196275;28;20029;-72
2022/01/04 09:54:25;;;;;;;5.03;1.25;;;20.50;48.00;;;;;;6195214;28;20488;-72
2022/01/04 09:57:26;;;;;;;3.42;0.90;;;20.50;48.00;;;;;;6177283;28;20065;-72
2022/01/04 10:00:26;;;;;;;1.75;0.80;;;20.50;48.10;;;;;;6195291;28;20037;-72
2022/01/04 10:03:29;;;;;;;2.05;1.10;;;20.50;48.20;;;;;;6190750;28;20513;-72
2022/01/04 10:06:31;;;;;;;2.08;0.90;;;20.50;48.30;;;;;;6195567;28;20045;-72
2022/01/04 10:09:45;;;;;;;3.13;1.23;;;20.60;48.50;;;;;;6194510;28;20049;-72
2022/01/04 10:12:53;;;;;;;1.92;0.82;;;20.60;48.60;;;;;;6194563;28;20507;-72
2022/01/04 10:15:53;;;;;;;2.22;1.00;;;20.60;48.70;;;;;;6194689;28;20076;-72
2022/01/04 10:18:54;;;;;;;1.60;0.70;;;20.60;48.70;;;;;;6191841;28;20425;-72
2022/01/04 10:22:09;;;;;;;1.40;0.75;;;20.50;49.30;;;;;;6197510;28;20044;-72
2022/01/04 10:25:12;;;;;;;;;;;20.60;48.80;;;;;;6195036;28;20027;-72
2022/01/04 10:28:28;;;;;;;8.60;4.30;;;20.60;48.80;;;;;;6177389;28;20234;-72
2022/01/04 10:31:37;;;;;;;11.82;5.93;;;20.60;48.90;;;;;;6192800;28;20027;-72
2022/01/04 10:34:56;;;;;;;17.20;8.07;;;20.60;48.90;;;;;;6194201;28;20038;-72
2022/01/04 10:38:00;;;;;;;18.83;8.75;;;20.60;48.90;;;;;;6194897;28;20042;-74
2022/01/04 10:41:21;;;;;;;22.90;10.48;;;20.60;48.90;;;;;;6195481;28;20647;-72
2022/01/04 10:44:31;;;;;;;18.25;8.18;;;20.60;48.90;;;;;;6188266;28;20385;-72
2022/01/04 10:47:32;;;;;;;14.82;7.38;;;20.60;49.00;;;;;;6196448;28;20109;-71
2022/01/04 10:50:37;;;;;;;13.15;6.57;;;20.60;49.00;;;;;;6194426;28;20033;-72
2022/01/04 10:53:46;;;;;;;13.50;6.40;;;20.60;49.00;;;;;;6192688;28;20176;-71
2022/01/04 10:56:47;;;;;;;11.10;5.53;;;20.60;49.10;;;;;;6194615;28;20030;-71
2022/01/04 10:59:47;;;;;;;10.85;5.20;;;20.70;49.20;;;;;;6194542;28;20357;-72
2022/01/04 11:02:48;;;;;;;11.50;5.43;;;20.60;49.20;;;;;;6193935;28;20073;-72
2022/01/04 11:05:53;;;;;;;11.77;5.70;;;20.70;49.30;;;;;;6194857;28;20019;-72
2022/01/04 11:08:54;;;;;;;13.57;4.88;;;20.70;49.30;;;;;;6196681;28;20018;-72
2022/01/04 11:11:55;;;;;;;10.07;4.70;;;20.70;49.40;;;;;;6198879;28;20425;-72
2022/01/04 11:14:56;;;;;;;11.65;5.22;;;20.70;49.30;;;;;;6197698;28;20026;-72
2022/01/04 11:17:56;;;;;;;20.77;6.15;;;20.70;49.30;;;;;;6198709;28;20041;-72
2022/01/04 11:20:58;;;;;;;14.70;5.57;;;20.70;49.40;;;;;;6197990;28;20038;-72
2022/01/04 11:24:01;;;;;;;13.05;5.28;;;20.70;49.40;;;;;;6197621;28;20102;-72
2022/01/04 11:27:03;;;;;;;11.55;5.03;;;20.70;49.40;;;;;;6198182;28;20026;-72
2022/01/04 11:30:11;;;;;;;14.80;5.43;;;20.70;49.40;;;;;;6197983;28;20068;-71
2022/01/04 11:33:19;;;;;;;9.23;4.82;;;20.70;49.40;;;;;;6196799;28;20440;-72
2022/01/04 11:36:21;;;;;;;12.77;5.15;;;20.70;49.40;;;;;;6196633;28;20026;-72
2022/01/04 11:39:29;;;;;;;10.18;4.82;;;20.70;49.40;;;;;;6196264;28;20042;-71
2022/01/04 11:42:34;;;;;;;8.18;4.03;;;20.70;49.50;;;;;;6197530;28;20022;-71
2022/01/04 11:45:39;;;;;;;9.52;4.03;;;20.70;49.40;;;;;;6197534;28;20030;-72
2022/01/04 11:48:42;;;;;;;9.73;4.40;;;20.70;49.50;;;;;;6195038;28;20041;-71
2022/01/04 11:51:43;;;;;;;10.50;4.63;;;20.70;49.50;;;;;;6197831;28;20057;-71
2022/01/04 11:54:44;;;;;;;8.32;4.60;;;20.80;49.60;;;;;;6204964;28;20030;-72
2022/01/04 11:57:44;;;;;;;11.45;4.20;;;20.80;49.70;;;;;;6202029;28;20133;-73
2022/01/04 12:00:56;;;;;;;9.93;3.85;;;20.80;49.90;;;;;;6201401;28;20437;-71
2022/01/04 12:03:56;;;;;;;10.35;4.18;;;20.70;50.00;;;;;;6192869;28;20065;-71
2022/01/04 12:06:57;;;;;;;7.75;3.78;;;20.80;50.20;;;;;;6197127;28;20034;-72
2022/01/04 12:10:20;;;;;;;9.25;4.22;;;20.80;50.20;;;;;;6193079;28;20062;-72
2022/01/04 12:13:22;;;;;;;10.38;4.32;;;20.80;50.40;;;;;;6196746;28;20026;-72
2022/01/04 12:16:34;;;;;;;7.30;3.55;;;20.80;50.40;;;;;;6196631;28;20404;-71
2022/01/04 12:19:46;;;;;;;10.65;4.15;;;20.70;50.40;;;;;;6196940;28;20087;-71
2022/01/04 12:22:46;;;;;;;8.82;3.92;;;20.70;50.40;;;;;;6203709;28;20092;-72
2022/01/04 12:26:16;;;;;;;11.75;4.13;;;20.80;50.40;;;;;;6206628;28;20489;-72
2022/01/04 12:29:18;;;;;;;10.77;3.47;;;20.70;50.30;;;;;;6199484;28;20044;-72
2022/01/04 12:32:21;;;;;;;6.95;3.80;;;20.80;50.30;;;;;;6196566;28;20053;-72
2022/01/04 12:35:41;;;;;;;7.22;3.55;;;20.70;50.20;;;;;;6205764;28;20076;-72
2022/01/04 12:38:48;;;;;;;11.82;3.95;;;20.80;50.30;;;;;;6196580;28;20549;-72
2022/01/04 12:41:54;;;;;;;7.80;3.75;;;20.70;50.20;;;;;;6196646;28;20069;-72
2022/01/04 12:44:57;;;;;;;5.93;3.30;;;20.70;50.20;;;;;;6210935;28;20030;-74
2022/01/04 12:47:57;;;;;;;7.60;3.60;;;20.70;50.20;;;;;;6195057;28;20072;-74
2022/01/04 12:51:28;;;;;;;6.38;3.40;;;20.70;50.20;;;;;;6195431;28;20432;-74
2022/01/04 12:54:29;;;;;;;8.10;3.50;;;20.70;50.20;;;;;;6195604;28;20034;-72
2022/01/04 12:57:30;;;;;;;6.18;3.38;;;20.70;50.20;;;;;;6195943;28;20077;-73
2022/01/04 13:00:31;;;;;;;5.32;3.17;;;20.70;50.30;;;;;;6198679;28;20068;-71
2022/01/04 13:03:34;;;;;;;4.45;2.75;;;20.70;50.30;;;;;;6195138;28;20097;-71
2022/01/04 13:06:35;;;;;;;5.07;2.92;;;20.70;50.30;;;;;;6195644;28;20034;-71
2022/01/04 13:09:35;;;;;;;4.07;2.72;;;20.70;50.30;;;;;;6196098;28;20065;-71
2022/01/04 13:12:42;;;;;;;5.93;3.20;;;20.70;50.30;;;;;;6194158;28;20033;-72
2022/01/04 13:15:42;;;;;;;5.78;2.65;;;20.60;50.20;;;;;;6196407;28;20069;-72
2022/01/04 13:18:43;;;;;;;5.10;3.10;;;20.70;50.30;;;;;;6194001;28;20141;-71
2022/01/04 13:21:51;;;;;;;4.28;2.72;;;20.60;50.20;;;;;;6195902;28;20030;-71
2022/01/04 13:24:54;;;;;;;5.15;2.30;;;20.60;50.20;;;;;;6198444;28;20439;-72
2022/01/04 13:27:55;;;;;;;4.25;3.00;;;20.60;50.20;;;;;;6192278;28;20026;-72
2022/01/04 13:30:56;;;;;;;5.03;2.70;;;20.60;50.20;;;;;;6195702;28;20030;-72
2022/01/04 13:33:56;;;;;;;4.82;2.67;;;20.60;50.20;;;;;;6189791;28;20029;-72
2022/01/04 13:36:57;;;;;;;5.38;2.42;;;20.60;50.20;;;;;;6194727;28;20081;-72
2022/01/04 13:39:59;;;;;;;4.82;2.88;;;20.60;50.20;;;;;;6195250;28;20026;-72
2022/01/04 13:43:05;;;;;;;4.35;2.50;;;20.60;50.20;;;;;;6194246;28;20366;-72
2022/01/04 13:46:12;;;;;;;6.15;2.75;;;20.60;50.20;;;;;;6194916;28;20041;-71
2022/01/04 13:49:12;;;;;;;4.18;2.13;;;20.60;50.20;;;;;;6200516;28;20026;-72
2022/01/04 13:52:17;;;;;;;6.50;3.17;;;20.60;50.20;;;;;;6194067;28;20097;-72
2022/01/04 13:55:18;;;;;;;4.35;2.30;;;20.60;50.20;;;;;;6194721;28;20062;-72
2022/01/04 13:58:37;;;;;;;7.07;2.85;;;20.70;50.30;;;;;;6195241;28;20404;-72
2022/01/04 14:01:43;;;;;;;3.80;2.47;;;20.60;50.20;;;;;;6203117;28;20042;-71
2022/01/04 14:04:44;;;;;;;5.68;2.70;;;20.70;50.30;;;;;;6200739;28;20279;-74
2022/01/04 14:07:58;;;;;;;7.13;2.85;;;20.70;50.40;;;;;;6211584;28;20046;-74
2022/01/04 14:11:03;;;;;;;13.35;2.50;;;20.70;50.50;;;;;;6202858;28;20022;-72
2022/01/04 14:14:12;;;;;;;5.30;2.22;;;20.70;50.40;;;;;;6197304;28;20041;-72
2022/01/04 14:17:23;;;;;;;4.80;2.38;;;20.70;50.40;;;;;;6191685;28;20400;-72
2022/01/04 14:20:23;;;;;;;8.80;2.92;;;20.70;51.20;;;;;;6192097;28;20038;-72
2022/01/04 14:23:31;;;;;;;7.30;2.63;;;20.70;50.60;;;;;;6199461;28;20045;-72
2022/01/04 14:26:32;;;;;;;8.35;2.60;;;20.70;50.80;;;;;;6196754;28;20394;-72
2022/01/04 14:29:38;;;;;;;5.60;2.70;;;20.70;50.60;;;;;;6194284;28;20029;-72
2022/01/04 14:32:46;;;;;;;5.90;2.53;;;20.70;50.60;;;;;;6194285;28;20105;-72
2022/01/04 14:35:47;;;;;;;5.90;2.28;;;20.70;50.70;;;;;;6193820;28;20034;-72
2022/01/04 14:38:47;;;;;;;5.72;2.67;;;20.70;50.70;;;;;;6193000;28;20033;-72
2022/01/04 14:41:48;;;;;;;7.18;3.13;;;20.70;51.40;;;;;;6193825;28;20026;-72
2022/01/04 14:44:49;;;;;;;4.47;2.58;;;20.80;50.60;;;;;;6197257;28;21518;-72
2022/01/04 14:47:49;;;;;;;6.53;3.03;;;20.80;50.60;;;;;;6198955;28;20137;-72
2022/01/04 14:50:50;;;;;;;6.65;2.55;;;20.70;50.50;;;;;;6195910;28;20113;-72
2022/01/04 14:53:52;;;;;;;3.67;2.17;;;20.80;50.70;;;;;;6197451;28;20500;-72
2022/01/04 14:56:53;;;;;;;8.48;2.78;;;20.80;50.70;;;;;;6197103;28;20389;-72
2022/01/04 14:59:57;;;;;;;6.72;2.30;;;20.70;50.60;;;;;;6198949;28;20049;-72
2022/01/04 15:02:58;;;;;;;4.72;2.40;;;20.80;50.70;;;;;;6197039;28;20579;-72
2022/01/04 15:05:58;;;;;;;4.28;2.60;;;20.70;50.80;;;;;;6196763;28;20034;-72
2022/01/04 15:08:59;;;;;;;7.18;2.80;;;20.70;50.80;;;;;;6197222;28;20030;-72
2022/01/04 15:12:00;;;;;;;7.50;2.58;;;20.70;50.80;;;;;;6197405;28;20038;-72
2022/01/04 15:15:03;;;;;;;9.05;2.63;;;20.80;50.90;;;;;;6200065;28;20512;-72
2022/01/04 15:18:03;;;;;;;5.45;2.50;;;20.70;50.90;;;;;;6201555;28;20507;-72
2022/01/04 15:21:04;;;;;;;4.32;2.33;;;20.80;51.00;;;;;;6176332;28;20023;-72
2022/01/04 15:24:06;;;;;;;4.97;2.08;;;20.70;50.90;;;;;;6192441;28;20022;-72
2022/01/04 15:27:06;;;;;;;4.13;2.30;;;20.80;51.70;;;;;;6198342;28;20031;-72
2022/01/04 15:30:09;;;;;;;16.58;12.13;;;20.80;51.10;;;;;;6212133;28;20026;-72
2022/01/04 15:33:11;;;;;;;18.58;11.02;;;20.80;51.00;;;;;;6197512;28;20041;-72
2022/01/04 15:36:11;;;;;;;17.67;13.43;;;20.80;50.80;;;;;;6196673;28;20030;-72
2022/01/04 15:39:24;;;;;;;19.80;14.00;;;20.80;50.30;;;;;;6197929;28;20389;-72
2022/01/04 15:42:26;;;;;;;14.77;10.82;;;20.80;50.30;;;;;;6194753;28;20116;-72
2022/01/04 15:45:27;;;;;;;17.58;10.70;;;20.90;50.70;;;;;;6196989;28;20034;-72
2022/01/04 15:48:28;;;;;;;19.40;11.10;;;21.00;50.50;;;;;;6197995;28;20038;-73
2022/01/04 15:51:28;;;;;;;23.83;15.25;;;21.00;50.20;;;;;;6209018;28;20073;-72
2022/01/04 15:54:28;;;;;;;21.13;14.00;;;20.90;49.20;;;;;;6197866;28;20019;-72